Time;durP1;ratioP1;P1;durP2;ratioP2;P2;SDS_P1;SDS_P2;PMS_P1;PMS_P2;Temp;Humidity;BMP_temperature;BMP_pressure;BME280_temperature;BME280_humidity;BME280_pressure;Samples;Min_cycle;Max_cycle;Signal;HPM_P1;HPM_P2
2022/11/25 00:01:26;;;;;;;10.73;8.17;;;1.30;99.90;;;;;;5115974;28;20660;-76
2022/11/25 00:03:55;;;;;;;11.93;8.30;;;1.40;99.90;;;;;;5115652;28;20686;-77
2022/11/25 00:06:26;;;;;;;12.07;8.13;;;1.30;99.90;;;;;;5116391;28;20552;-77
2022/11/25 00:08:57;;;;;;;10.77;8.40;;;1.30;99.90;;;;;;5115956;27;20542;-76
2022/11/25 00:11:26;;;;;;;11.30;9.40;;;1.30;99.90;;;;;;5124666;28;20278;-75
2022/11/25 00:13:55;;;;;;;11.60;8.73;;;1.30;99.90;;;;;;5125400;28;20217;-74
2022/11/25 00:16:25;;;;;;;11.07;8.77;;;1.30;99.90;;;;;;5124383;27;20452;-76
2022/11/25 00:18:56;;;;;;;11.63;9.73;;;1.30;99.90;;;;;;5131872;27;20210;-77
2022/11/25 00:21:27;;;;;;;13.27;9.50;;;1.20;99.90;;;;;;5128336;28;20296;-75
2022/11/25 00:23:58;;;;;;;11.97;9.57;;;1.20;99.90;;;;;;5115529;28;20187;-76
2022/11/25 00:26:28;;;;;;;12.43;10.33;;;1.30;99.90;;;;;;5115557;27;20222;-76
2022/11/25 00:28:59;;;;;;;12.10;10.30;;;1.30;99.90;;;;;;5115284;28;20589;-73
2022/11/25 00:31:29;;;;;;;14.07;10.67;;;1.20;99.90;;;;;;5115789;28;20201;-75
2022/11/25 00:33:57;;;;;;;13.67;10.93;;;1.20;99.90;;;;;;5115189;27;20489;-73
2022/11/25 00:36:27;;;;;;;12.93;10.50;;;1.30;99.90;;;;;;5115460;28;20255;-75
2022/11/25 00:38:58;;;;;;;14.43;11.67;;;1.20;99.90;;;;;;5121194;28;20201;-75
2022/11/25 00:47:01;;;;;;;12.73;11.33;;;1.30;99.90;;;;;;5115538;28;20465;-74
2022/11/25 00:49:29;;;;;;;14.73;11.13;;;1.30;99.90;;;;;;5115342;28;20202;-75
2022/11/25 00:51:57;;;;;;;14.10;11.53;;;1.30;99.90;;;;;;5114804;27;20229;-73
2022/11/25 00:54:27;;;;;;;14.00;12.03;;;1.20;99.90;;;;;;5114764;28;20463;-75
2022/11/25 00:56:55;;;;;;;13.37;11.00;;;1.20;99.90;;;;;;5122900;27;20442;-75
2022/11/25 00:59:23;;;;;;;16.67;11.67;;;1.10;99.90;;;;;;5131134;27;20202;-73
2022/11/25 01:01:51;;;;;;;13.73;11.97;;;1.10;99.90;;;;;;5114579;28;20220;-74
2022/11/25 01:04:20;;;;;;;13.00;11.07;;;1.10;99.90;;;;;;5114895;28;20263;-76
2022/11/25 01:06:48;;;;;;;14.47;11.07;;;1.10;99.90;;;;;;5114945;27;20981;-75
2022/11/25 01:09:16;;;;;;;13.47;11.80;;;1.10;99.90;;;;;;5114468;28;20576;-74
2022/11/25 01:11:45;;;;;;;14.87;12.63;;;1.10;99.90;;;;;;5114594;28;20293;-75
2022/11/25 01:14:17;;;;;;;13.00;11.63;;;1.10;99.90;;;;;;5106259;28;20480;-74
2022/11/25 01:16:51;;;;;;;14.00;12.23;;;1.10;99.90;;;;;;5114653;28;20679;-76
2022/11/25 01:19:21;;;;;;;13.97;12.47;;;1.10;99.90;;;;;;5114509;28;20187;-80
2022/11/25 01:21:49;;;;;;;13.43;11.83;;;1.10;99.90;;;;;;5113635;28;20210;-74
2022/11/25 01:24:18;;;;;;;15.17;12.37;;;1.10;99.90;;;;;;5114362;28;20198;-75
2022/11/25 01:26:54;;;;;;;14.47;12.10;;;1.00;99.90;;;;;;5113740;27;20550;-77
2022/11/25 01:29:23;;;;;;;15.63;12.57;;;1.10;99.90;;;;;;5114201;28;20970;-74
2022/11/25 01:31:51;;;;;;;13.53;11.93;;;1.00;99.90;;;;;;5114031;28;20217;-79
2022/11/25 01:34:22;;;;;;;14.13;12.23;;;1.10;99.90;;;;;;5113739;28;20664;-75
2022/11/25 01:36:51;;;;;;;15.47;12.73;;;1.10;99.90;;;;;;5113728;28;20206;-75
2022/11/25 01:39:21;;;;;;;14.47;12.97;;;1.10;99.90;;;;;;5113440;28;20814;-74
2022/11/25 01:41:58;;;;;;;15.07;12.43;;;1.00;99.90;;;;;;5113264;28;20533;-73
2022/11/25 01:44:28;;;;;;;14.50;12.67;;;1.00;99.90;;;;;;5113480;27;20482;-76
2022/11/25 01:47:06;;;;;;;15.50;12.83;;;1.00;99.90;;;;;;5113860;28;20221;-74
2022/11/25 01:49:39;;;;;;;14.00;12.50;;;1.00;99.90;;;;;;5114267;28;20186;-73
2022/11/25 01:52:14;;;;;;;15.23;12.57;;;1.00;99.90;;;;;;5113404;27;20539;-74
2022/11/25 01:54:49;;;;;;;14.27;12.20;;;1.00;99.90;;;;;;5115151;27;20412;-75
2022/11/25 01:57:24;;;;;;;14.47;11.90;;;0.90;99.90;;;;;;5134326;27;20457;-75
2022/11/25 01:59:56;;;;;;;15.20;12.60;;;0.80;99.90;;;;;;5127415;27;20198;-74
2022/11/25 02:02:24;;;;;;;16.23;11.70;;;0.80;99.90;;;;;;5113431;28;20205;-77
2022/11/25 02:04:52;;;;;;;13.27;11.67;;;0.80;99.90;;;;;;5113283;28;20253;-73
2022/11/25 02:07:31;;;;;;;15.63;12.30;;;0.90;99.90;;;;;;5113333;28;20834;-73
2022/11/25 02:10:01;;;;;;;13.90;11.90;;;0.70;99.90;;;;;;5113412;28;20293;-75
2022/11/25 02:12:32;;;;;;;14.40;11.93;;;0.80;99.90;;;;;;5112785;28;20230;-76
2022/11/25 02:15:00;;;;;;;14.20;12.00;;;0.70;99.90;;;;;;5113075;28;20198;-73
2022/11/25 02:17:29;;;;;;;13.90;11.90;;;0.70;99.90;;;;;;5112935;28;20678;-76
2022/11/25 02:20:05;;;;;;;12.90;11.47;;;0.70;99.90;;;;;;5112756;28;20436;-75
2022/11/25 02:22:45;;;;;;;13.93;12.07;;;0.60;99.90;;;;;;5112948;28;20409;-74
2022/11/25 02:25:20;;;;;;;14.20;12.33;;;0.60;99.90;;;;;;5117577;27;20573;-76
2022/11/25 02:27:54;;;;;;;14.90;12.07;;;0.50;99.90;;;;;;5149699;27;20465;-75
2022/11/25 02:30:22;;;;;;;14.37;12.13;;;0.50;99.90;;;;;;5146661;27;20457;-73
2022/11/25 02:32:51;;;;;;;13.73;12.23;;;0.60;99.90;;;;;;5133305;27;20244;-74
2022/11/25 02:35:31;;;;;;;15.50;12.57;;;0.50;99.90;;;;;;5115800;27;20452;-73
2022/11/25 02:38:07;;;;;;;15.27;12.03;;;0.40;99.90;;;;;;5113048;28;20956;-73
2022/11/25 02:40:42;;;;;;;14.53;12.37;;;0.40;99.90;;;;;;5113063;28;20186;-74
2022/11/25 02:43:10;;;;;;;15.33;12.43;;;0.40;99.90;;;;;;5112570;27;20209;-73
2022/11/25 02:45:57;;;;;;;13.57;11.97;;;0.40;99.90;;;;;;5112841;28;20531;-73
2022/11/25 02:48:28;;;;;;;15.60;12.33;;;0.40;99.90;;;;;;5113011;28;20456;-75
2022/11/25 02:51:17;;;;;;;15.17;12.03;;;0.40;99.90;;;;;;5127076;28;20221;-75
2022/11/25 02:53:46;;;;;;;18.17;12.90;;;0.40;99.90;;;;;;5122389;27;20489;-75
2022/11/25 02:56:17;;;;;;;14.23;12.00;;;0.30;99.90;;;;;;5137071;27;20491;-76
2022/11/25 02:58:45;;;;;;;13.93;11.77;;;0.40;99.90;;;;;;5132943;28;20928;-73
2022/11/25 03:01:14;;;;;;;14.33;12.40;;;0.30;99.90;;;;;;5131633;27;20205;-74
2022/11/25 03:03:42;;;;;;;14.03;12.10;;;0.30;99.90;;;;;;5132859;28;20447;-74
2022/11/25 03:06:10;;;;;;;14.87;12.57;;;0.30;99.90;;;;;;5133336;28;20865;-73
2022/11/25 03:08:39;;;;;;;15.50;12.80;;;0.30;99.90;;;;;;5133289;28;20655;-75
2022/11/25 03:11:10;;;;;;;14.53;12.70;;;0.30;99.90;;;;;;5112959;28;20659;-74
2022/11/25 03:13:40;;;;;;;14.27;12.13;;;0.30;99.90;;;;;;5112878;28;20486;-74
2022/11/25 03:16:08;;;;;;;16.53;13.37;;;0.30;99.90;;;;;;5112367;28;20447;-75
2022/11/25 03:18:37;;;;;;;16.50;12.67;;;0.40;99.90;;;;;;5112302;28;20520;-75
2022/11/25 03:21:06;;;;;;;15.33;12.83;;;0.40;99.90;;;;;;5112576;28;20449;-73
2022/11/25 03:23:37;;;;;;;15.53;13.13;;;0.30;99.90;;;;;;5112170;28;20463;-73
2022/11/25 03:26:06;;;;;;;16.37;12.53;;;0.30;99.90;;;;;;5112606;28;20209;-74
2022/11/25 03:28:35;;;;;;;14.40;12.13;;;0.30;99.90;;;;;;5112833;28;20253;-75
2022/11/25 03:31:04;;;;;;;14.03;12.40;;;0.30;99.90;;;;;;5112562;28;20213;-76
2022/11/25 03:33:32;;;;;;;14.03;11.90;;;0.30;99.90;;;;;;5113245;28;20904;-76
2022/11/25 03:36:01;;;;;;;15.17;12.80;;;0.30;99.90;;;;;;5114118;28;20547;-77
2022/11/25 03:38:30;;;;;;;15.13;12.90;;;0.30;99.90;;;;;;5113512;28;20454;-75
2022/11/25 03:40:58;;;;;;;15.57;12.40;;;0.30;99.90;;;;;;5111918;28;20664;-75
2022/11/25 03:43:26;;;;;;;13.20;11.80;;;0.30;99.90;;;;;;5111664;27;20542;-72
2022/11/25 03:45:54;;;;;;;15.07;12.77;;;0.30;99.90;;;;;;5111680;28;20455;-75
2022/11/25 03:48:24;;;;;;;17.23;13.07;;;0.30;99.90;;;;;;5111942;28;20447;-76
2022/11/25 03:50:53;;;;;;;17.27;12.40;;;0.20;99.90;;;;;;5112608;28;20464;-75
2022/11/25 03:53:21;;;;;;;16.37;12.60;;;0.20;99.90;;;;;;5126125;28;20579;-74
2022/11/25 03:55:49;;;;;;;16.03;13.27;;;0.20;99.90;;;;;;5132496;28;20491;-75
2022/11/25 03:58:17;;;;;;;15.80;13.33;;;0.20;99.90;;;;;;5132923;28;20455;-75
2022/11/25 04:00:45;;;;;;;15.37;12.60;;;0.20;99.90;;;;;;5124803;28;20531;-76
2022/11/25 04:03:15;;;;;;;15.43;12.97;;;0.20;99.90;;;;;;5127307;28;20210;-78
2022/11/25 04:05:44;;;;;;;16.37;12.97;;;0.20;99.90;;;;;;5117580;28;20458;-76
2022/11/25 04:08:15;;;;;;;15.80;12.17;;;0.20;99.90;;;;;;5115513;27;20217;-76
2022/11/25 04:10:43;;;;;;;15.93;12.97;;;0.20;99.90;;;;;;5122442;28;20506;-77
2022/11/25 04:13:10;;;;;;;16.23;13.27;;;0.20;99.90;;;;;;5124899;28;20206;-74
2022/11/25 04:15:43;;;;;;;15.17;12.50;;;0.20;99.90;;;;;;5123040;28;20955;-77
2022/11/25 04:18:11;;;;;;;15.00;12.47;;;0.20;99.90;;;;;;5116810;27;20671;-78
2022/11/25 04:20:40;;;;;;;15.20;13.40;;;0.20;99.90;;;;;;5115386;28;20447;-73
2022/11/25 04:23:10;;;;;;;14.57;12.40;;;0.20;99.90;;;;;;5114773;28;20867;-78
2022/11/25 04:25:41;;;;;;;14.13;12.17;;;0.20;99.90;;;;;;5114386;27;21011;-77
2022/11/25 04:28:09;;;;;;;17.33;12.70;;;0.20;99.90;;;;;;5114818;28;20479;-80
2022/11/25 04:30:38;;;;;;;16.57;13.37;;;0.10;99.90;;;;;;5115036;28;20233;-79
2022/11/25 04:33:06;;;;;;;17.33;13.83;;;0.10;99.90;;;;;;5115062;28;20441;-74
2022/11/25 04:35:34;;;;;;;14.57;12.53;;;0.20;99.90;;;;;;5114279;27;20618;-78
2022/11/25 04:38:05;;;;;;;15.27;13.17;;;0.10;99.90;;;;;;5114731;28;20574;-78
2022/11/25 04:40:34;;;;;;;15.10;13.07;;;0.20;99.90;;;;;;5114878;28;20452;-78
2022/11/25 04:43:06;;;;;;;17.63;12.63;;;0.20;99.90;;;;;;5114232;28;20257;-78
2022/11/25 04:45:37;;;;;;;14.37;12.20;;;0.10;99.90;;;;;;5114911;28;20507;-81
2022/11/25 04:48:25;;;;;;;14.60;12.20;;;0.10;99.90;;;;;;5114197;28;20214;-78
2022/11/25 04:50:54;;;;;;;15.67;13.00;;;0.10;99.90;;;;;;5116922;27;20294;-77
2022/11/25 04:53:22;;;;;;;15.63;12.80;;;0.10;99.90;;;;;;5113414;28;20460;-80
2022/11/25 04:55:53;;;;;;;17.13;13.47;;;0.10;99.90;;;;;;5114622;28;20476;-77
2022/11/25 05:01:04;;;;;;;14.37;12.30;;;0.20;99.90;;;;;;5113768;27;20938;-78
2022/11/25 05:03:32;;;;;;;18.40;13.60;;;0.20;99.90;;;;;;5113718;28;20472;-78
2022/11/25 05:06:05;;;;;;;16.70;13.90;;;0.20;99.90;;;;;;5119297;28;20443;-76
2022/11/25 05:08:33;;;;;;;16.17;13.50;;;0.20;99.90;;;;;;5125124;27;20234;-78
2022/11/25 05:11:02;;;;;;;17.80;14.30;;;0.10;99.90;;;;;;5137186;27;20448;-76
2022/11/25 05:13:30;;;;;;;19.97;15.87;;;0.30;99.90;;;;;;5135902;27;20551;-79
2022/11/25 05:15:59;;;;;;;26.07;18.23;;;0.20;99.90;;;;;;5134684;27;20233;-79
2022/11/25 05:18:27;;;;;;;25.97;18.60;;;0.20;99.90;;;;;;5125328;27;20281;-78
2022/11/25 05:20:55;;;;;;;31.33;21.57;;;0.20;99.90;;;;;;5113782;28;20198;-80
2022/11/25 05:23:23;;;;;;;28.83;20.13;;;0.30;99.90;;;;;;5113765;28;20531;-79
2022/11/25 05:25:52;;;;;;;26.27;19.17;;;0.30;99.90;;;;;;5113911;28;20460;-75
2022/11/25 05:28:21;;;;;;;24.33;18.43;;;0.30;99.90;;;;;;5113737;27;20715;-79
2022/11/25 05:30:49;;;;;;;23.90;18.77;;;0.30;99.90;;;;;;5113936;28;20448;-80
2022/11/25 05:33:17;;;;;;;20.33;16.70;;;0.30;99.90;;;;;;5113580;28;20491;-76
2022/11/25 05:35:54;;;;;;;21.47;17.30;;;0.30;99.90;;;;;;5113898;27;20528;-81
2022/11/25 05:38:22;;;;;;;22.37;16.93;;;0.30;99.90;;;;;;5113799;28;20218;-79
2022/11/25 05:40:50;;;;;;;21.60;16.97;;;0.30;99.90;;;;;;5114000;28;20633;-79
2022/11/25 05:43:18;;;;;;;22.77;18.20;;;0.30;99.90;;;;;;5113399;28;20217;-78
2022/11/25 05:45:48;;;;;;;25.97;19.33;;;0.30;99.90;;;;;;5114194;28;20210;-79
2022/11/25 05:48:16;;;;;;;22.60;18.10;;;0.30;99.90;;;;;;5114193;28;20490;-80
2022/11/25 05:50:48;;;;;;;21.47;18.70;;;0.20;99.90;;;;;;5129133;27;20603;-75
2022/11/25 05:53:17;;;;;;;21.27;17.77;;;0.30;99.90;;;;;;5133542;27;20582;-79
2022/11/25 05:55:46;;;;;;;19.37;16.07;;;0.30;99.90;;;;;;5133998;27;20590;-76
2022/11/25 05:58:14;;;;;;;22.00;18.20;;;0.30;99.90;;;;;;5134078;27;20220;-80
2022/11/25 06:00:43;;;;;;;20.70;18.00;;;0.30;99.90;;;;;;5114940;27;20471;-75
2022/11/25 06:03:13;;;;;;;19.17;16.43;;;0.30;99.90;;;;;;5113179;28;20444;-77
2022/11/25 06:05:41;;;;;;;17.53;15.03;;;0.30;99.90;;;;;;5114253;28;20444;-76
2022/11/25 06:08:10;;;;;;;16.77;14.80;;;0.30;99.90;;;;;;5113361;27;20731;-78
2022/11/25 06:10:39;;;;;;;18.60;15.57;;;0.20;99.90;;;;;;5117882;28;20800;-77
2022/11/25 06:13:07;;;;;;;17.57;14.50;;;0.20;99.90;;;;;;5115222;28;20535;-77
2022/11/25 06:15:42;;;;;;;16.87;14.30;;;0.30;99.90;;;;;;5114114;28;20229;-77
2022/11/25 06:18:11;;;;;;;19.13;15.73;;;0.30;99.90;;;;;;5113715;28;20846;-78
2022/11/25 06:20:40;;;;;;;15.17;13.57;;;0.20;99.90;;;;;;5113424;28;20214;-78
2022/11/25 06:23:10;;;;;;;16.60;12.63;;;0.20;99.90;;;;;;5113000;28;20851;-80
2022/11/25 06:25:38;;;;;;;19.40;17.30;;;0.20;99.90;;;;;;5112726;28;20815;-78
2022/11/25 06:28:06;;;;;;;25.87;23.07;;;0.20;99.90;;;;;;5113130;28;20490;-75
2022/11/25 06:30:42;;;;;;;19.17;17.10;;;0.20;99.90;;;;;;5113094;28;20427;-78
2022/11/25 06:33:10;;;;;;;18.07;16.10;;;0.20;99.90;;;;;;5112652;28;20977;-77
2022/11/25 06:35:39;;;;;;;18.57;16.57;;;0.20;99.90;;;;;;5112391;28;20218;-75
2022/11/25 06:38:08;;;;;;;24.53;21.90;;;0.10;99.90;;;;;;5112351;27;20976;-79
2022/11/25 06:40:36;;;;;;;29.07;25.43;;;0.10;99.90;;;;;;5112879;28;20436;-76
2022/11/25 06:43:04;;;;;;;32.67;28.27;;;0.10;99.90;;;;;;5112522;28;20544;-78
2022/11/25 06:45:33;;;;;;;25.00;22.30;;;0.10;99.90;;;;;;5112773;28;20804;-78
2022/11/25 06:48:02;;;;;;;23.23;18.63;;;0.00;99.90;;;;;;5117196;27;20560;-80
2022/11/25 06:50:30;;;;;;;17.60;15.67;;;0.00;99.90;;;;;;5112792;28;20468;-78
2022/11/25 06:53:00;;;;;;;17.80;14.23;;;0.10;99.90;;;;;;5112479;28;20210;-79
2022/11/25 06:55:28;;;;;;;18.67;15.53;;;0.20;99.90;;;;;;5112340;28;20480;-79
2022/11/25 06:57:57;;;;;;;18.57;15.17;;;0.20;99.90;;;;;;5112537;28;20795;-80
2022/11/25 07:00:46;;;;;;;15.77;13.60;;;0.20;99.90;;;;;;5112925;28;20210;-76
2022/11/25 07:03:14;;;;;;;17.13;14.03;;;0.40;99.90;;;;;;5115703;28;20474;-77
2022/11/25 07:05:42;;;;;;;15.43;13.30;;;0.40;99.90;;;;;;5133321;28;20708;-75
2022/11/25 07:08:15;;;;;;;16.77;13.47;;;0.50;99.90;;;;;;5133362;28;20544;-74
2022/11/25 07:10:44;;;;;;;14.53;12.30;;;0.60;99.90;;;;;;5133867;28;20837;-78
2022/11/25 07:13:12;;;;;;;15.87;12.60;;;0.70;99.90;;;;;;5107478;28;20217;-76
2022/11/25 07:15:40;;;;;;;18.73;12.30;;;0.80;99.90;;;;;;5113843;28;20230;-77
2022/11/25 07:18:08;;;;;;;13.57;11.23;;;0.90;99.90;;;;;;5113771;28;20255;-77
2022/11/25 07:20:39;;;;;;;13.40;11.10;;;1.00;99.90;;;;;;5113386;28;20468;-77
2022/11/25 07:23:07;;;;;;;14.07;12.13;;;1.10;99.90;;;;;;5119894;28;20217;-78
2022/11/25 07:25:37;;;;;;;12.53;11.07;;;1.20;99.90;;;;;;5117098;28;20202;-75
2022/11/25 07:28:05;;;;;;;10.97;9.73;;;1.20;99.90;;;;;;5125302;28;20210;-75
2022/11/25 07:30:33;;;;;;;11.37;9.90;;;1.20;99.90;;;;;;5117007;28;20659;-74
2022/11/25 07:33:23;;;;;;;14.33;9.27;;;1.30;99.90;;;;;;5112838;28;20297;-74
2022/11/25 07:35:51;;;;;;;10.77;8.70;;;1.40;99.90;;;;;;5113471;28;20260;-79
2022/11/25 07:38:19;;;;;;;15.87;13.27;;;1.50;99.90;;;;;;5123688;27;20212;-77
2022/11/25 07:40:52;;;;;;;15.10;13.47;;;1.60;99.90;;;;;;5137094;27;20201;-76
2022/11/25 07:43:20;;;;;;;10.70;8.70;;;1.60;99.90;;;;;;5140455;27;20209;-77
2022/11/25 07:45:48;;;;;;;9.10;7.83;;;1.80;99.90;;;;;;5141152;27;20212;-76
2022/11/25 07:48:42;;;;;;;12.90;10.77;;;2.00;99.90;;;;;;5136289;27;20234;-76
2022/11/25 07:51:21;;;;;;;9.47;8.17;;;2.30;99.90;;;;;;5137857;27;20212;-76
2022/11/25 07:53:50;;;;;;;9.57;7.03;;;2.50;99.90;;;;;;5136537;27;20605;-75
2022/11/25 07:56:20;;;;;;;7.03;5.87;;;2.70;99.90;;;;;;5140395;27;20256;-76
2022/11/25 07:58:49;;;;;;;7.57;6.33;;;2.80;99.90;;;;;;5125905;27;20201;-75
2022/11/25 08:01:18;;;;;;;6.70;6.00;;;2.70;99.90;;;;;;5136314;27;20206;-74
2022/11/25 08:03:48;;;;;;;10.23;8.27;;;2.70;99.90;;;;;;5130857;27;20684;-76
2022/11/25 08:06:18;;;;;;;9.30;7.27;;;2.70;99.90;;;;;;5115155;27;20220;-76
2022/11/25 08:08:47;;;;;;;7.80;6.63;;;2.50;99.90;;;;;;5131154;27;20225;-75
2022/11/25 08:11:17;;;;;;;7.47;6.40;;;2.60;99.90;;;;;;5153145;27;20772;-76
2022/11/25 08:13:48;;;;;;;7.97;6.77;;;2.40;99.90;;;;;;5140535;27;20205;-74
2022/11/25 08:16:19;;;;;;;8.20;6.70;;;2.50;99.90;;;;;;5156375;27;20259;-75
2022/11/25 08:18:47;;;;;;;10.17;8.50;;;2.50;99.90;;;;;;5141129;27;20229;-75
2022/11/25 08:21:16;;;;;;;9.33;7.83;;;2.50;99.90;;;;;;5141349;27;20623;-75
2022/11/25 08:23:47;;;;;;;9.60;7.90;;;2.50;99.90;;;;;;5156386;27;20200;-76
2022/11/25 08:26:18;;;;;;;10.20;9.10;;;2.60;99.90;;;;;;5152277;27;20212;-75
2022/11/25 08:28:48;;;;;;;16.60;14.20;;;2.50;99.90;;;;;;5126005;27;20221;-76
2022/11/25 08:31:19;;;;;;;17.27;13.27;;;2.60;99.90;;;;;;5133199;27;20209;-76
2022/11/25 08:33:47;;;;;;;11.73;9.83;;;2.70;99.90;;;;;;5124626;27;20286;-77
2022/11/25 08:36:16;;;;;;;13.73;9.77;;;2.80;99.90;;;;;;5132247;27;20232;-76
2022/11/25 08:38:46;;;;;;;11.10;8.67;;;2.90;99.90;;;;;;5123946;27;20213;-76
2022/11/25 08:41:16;;;;;;;10.37;7.50;;;3.00;99.90;;;;;;5134917;27;20671;-76
2022/11/25 08:43:44;;;;;;;17.90;10.47;;;3.20;99.90;;;;;;5135642;27;20236;-76
2022/11/25 08:46:16;;;;;;;11.90;7.97;;;3.30;99.90;;;;;;5138947;27;20198;-74
2022/11/25 08:48:44;;;;;;;10.83;7.27;;;3.50;99.90;;;;;;5139959;27;20363;-77
2022/11/25 08:51:18;;;;;;;7.37;5.67;;;3.60;99.90;;;;;;5137634;27;20636;-78
2022/11/25 08:53:47;;;;;;;7.33;5.80;;;3.80;99.90;;;;;;5134854;27;20870;-75
2022/11/25 08:56:15;;;;;;;7.90;5.80;;;3.90;99.90;;;;;;5128711;27;20244;-76
2022/11/25 08:58:48;;;;;;;7.73;5.33;;;4.00;99.90;;;;;;5134302;27;20210;-76
2022/11/25 09:01:20;;;;;;;8.23;5.50;;;4.00;99.90;;;;;;5132338;27;20487;-74
2022/11/25 09:03:50;;;;;;;7.93;5.00;;;4.10;99.90;;;;;;5135990;27;20206;-74
2022/11/25 09:06:19;;;;;;;6.50;4.77;;;3.90;99.90;;;;;;5132945;27;20652;-73
2022/11/25 09:08:48;;;;;;;5.93;4.70;;;4.00;99.90;;;;;;5132748;27;20205;-75
2022/11/25 09:11:17;;;;;;;6.97;5.70;;;4.10;99.90;;;;;;5144797;27;20277;-76
2022/11/25 09:13:45;;;;;;;9.13;6.33;;;4.20;99.90;;;;;;5135998;28;20208;-76
2022/11/25 09:16:14;;;;;;;6.20;4.80;;;4.20;99.90;;;;;;5122233;27;20283;-74
2022/11/25 09:18:44;;;;;;;9.90;8.03;;;4.30;99.90;;;;;;5117406;27;20308;-75
2022/11/25 09:21:15;;;;;;;8.30;7.03;;;4.30;99.90;;;;;;5116186;28;20596;-75
2022/11/25 09:23:44;;;;;;;11.07;8.80;;;4.40;99.90;;;;;;5115990;28;20209;-76
2022/11/25 09:26:22;;;;;;;17.23;13.07;;;4.40;99.90;;;;;;5115437;28;20221;-77
2022/11/25 09:28:50;;;;;;;6.87;5.50;;;4.40;99.90;;;;;;5115934;28;20589;-76
2022/11/25 09:31:19;;;;;;;9.67;7.27;;;4.40;99.90;;;;;;5113386;27;20736;-76
2022/11/25 09:33:50;;;;;;;7.17;6.20;;;4.40;99.90;;;;;;5114110;28;20206;-74
2022/11/25 09:36:19;;;;;;;7.47;5.80;;;4.60;99.90;;;;;;5114406;28;20620;-74
2022/11/25 09:38:48;;;;;;;5.13;4.37;;;4.60;99.90;;;;;;5121492;27;20694;-75
2022/11/25 09:47:25;;;;;;;6.37;5.37;;;4.90;99.90;;;;;;5115046;28;20202;-74
2022/11/25 09:50:08;;;;;;;17.80;16.20;;;4.90;99.90;;;;;;5137545;27;20205;-74
2022/11/25 09:52:46;;;;;;;10.53;9.43;;;5.10;99.90;;;;;;5137855;27;20217;-74
2022/11/25 09:55:18;;;;;;;9.23;7.07;;;5.10;99.90;;;;;;5135712;27;20209;-75
2022/11/25 09:57:58;;;;;;;5.73;4.50;;;5.20;99.90;;;;;;5135042;27;20244;-75
2022/11/25 10:00:36;;;;;;;6.03;4.13;;;5.30;99.90;;;;;;5122034;27;20299;-75
2022/11/25 10:03:09;;;;;;;4.83;3.67;;;5.70;99.90;;;;;;5114550;28;20222;-74
2022/11/25 10:05:47;;;;;;;6.57;3.70;;;6.30;99.90;;;;;;5114748;28;20225;-75
2022/11/25 10:08:22;;;;;;;3.87;3.30;;;6.80;99.90;;;;;;5114546;28;20225;-76
2022/11/25 10:10:58;;;;;;;7.10;3.50;;;7.30;99.90;;;;;;5114057;28;20604;-74
2022/11/25 10:13:33;;;;;;;4.17;3.47;;;7.90;99.90;;;;;;5118186;27;20239;-75
2022/11/25 10:16:05;;;;;;;5.17;3.67;;;8.00;99.90;;;;;;5137576;27;20212;-75
2022/11/25 10:18:39;;;;;;;5.37;3.53;;;8.10;99.90;;;;;;5134460;27;20213;-80
2022/11/25 10:21:13;;;;;;;4.63;3.50;;;8.20;99.90;;;;;;5133071;27;20298;-81
2022/11/25 10:23:42;;;;;;;4.30;3.37;;;8.50;99.90;;;;;;5141462;27;20562;-77
2022/11/25 10:26:15;;;;;;;3.97;3.27;;;8.50;99.90;;;;;;5142950;27;20262;-81
2022/11/25 10:28:50;;;;;;;3.43;2.90;;;8.80;99.90;;;;;;5135692;27;20213;-79
2022/11/25 10:31:20;;;;;;;6.30;2.90;;;8.50;99.90;;;;;;5134045;27;20256;-78
2022/11/25 10:33:51;;;;;;;4.03;3.37;;;8.30;99.90;;;;;;5136642;27;20333;-83
2022/11/25 10:36:24;;;;;;;4.57;3.10;;;8.30;99.90;;;;;;5133878;27;20198;-79
2022/11/25 10:38:57;;;;;;;5.60;3.27;;;7.90;99.90;;;;;;5127583;27;20213;-80
2022/11/25 10:41:29;;;;;;;4.30;3.50;;;8.10;99.90;;;;;;5134862;27;20651;-83
2022/11/25 10:43:57;;;;;;;4.97;3.70;;;8.60;99.90;;;;;;5135202;27;20197;-82
2022/11/25 10:46:32;;;;;;;4.83;3.47;;;9.20;99.90;;;;;;5133165;27;20216;-80
2022/11/25 10:49:28;;;;;;;3.67;2.63;;;9.70;99.90;;;;;;5150941;27;20549;-82
2022/11/25 10:51:57;;;;;;;2.97;2.47;;;11.00;99.90;;;;;;5137545;27;20243;-83
2022/11/25 10:54:39;;;;;;;3.73;2.50;;;11.40;99.90;;;;;;5144595;27;20222;-81
2022/11/25 10:57:18;;;;;;;3.50;2.53;;;11.70;99.90;;;;;;5129934;28;20240;-83
2022/11/25 10:59:57;;;;;;;3.33;2.30;;;12.10;99.90;;;;;;5126758;28;20244;-82
2022/11/25 11:02:28;;;;;;;4.27;2.17;;;12.10;99.90;;;;;;5138346;28;20201;-82
2022/11/25 11:05:01;;;;;;;5.70;2.47;;;12.70;99.90;;;;;;5137279;27;20284;-82
2022/11/25 11:07:33;;;;;;;3.57;2.40;;;12.90;99.90;;;;;;5138575;28;20205;-83
2022/11/25 11:10:18;;;;;;;2.70;2.37;;;12.70;99.90;;;;;;5143567;28;20194;-81
2022/11/25 11:12:58;;;;;;;2.73;2.40;;;12.50;99.90;;;;;;5140651;27;20193;-86
2022/11/25 11:15:28;;;;;;;2.63;2.33;;;12.70;99.90;;;;;;5145912;27;20207;-83
2022/11/25 11:17:58;;;;;;;4.13;2.50;;;12.50;99.90;;;;;;5150904;27;20229;-84
2022/11/25 11:20:28;;;;;;;3.77;2.40;;;12.20;99.90;;;;;;5149823;27;20213;-82
2022/11/25 11:23:01;;;;;;;3.97;2.53;;;12.20;99.90;;;;;;5136733;27;20265;-83
2022/11/25 11:25:37;;;;;;;3.60;2.23;;;12.50;99.90;;;;;;5136904;27;20271;-81
2022/11/25 11:28:25;;;;;;;3.93;2.20;;;12.50;99.90;;;;;;5138787;27;20692;-81
2022/11/25 11:30:57;;;;;;;2.17;1.83;;;12.00;99.90;;;;;;5138651;27;20197;-82
2022/11/25 11:33:30;;;;;;;5.23;2.40;;;12.00;99.90;;;;;;5135669;27;20612;-80
2022/11/25 11:36:07;;;;;;;4.10;2.03;;;11.60;99.90;;;;;;5137616;27;20221;-82
2022/11/25 11:38:47;;;;;;;4.77;2.47;;;11.50;99.90;;;;;;5123403;27;20786;-82
2022/11/25 11:41:28;;;;;;;3.40;1.93;;;11.50;99.90;;;;;;5137509;27;20189;-81
2022/11/25 11:44:21;;;;;;;3.10;2.10;;;11.50;99.90;;;;;;5135752;27;20557;-82
2022/11/25 11:47:15;;;;;;;2.73;1.93;;;11.30;99.90;;;;;;5135295;27;20202;-82
2022/11/25 11:50:01;;;;;;;3.33;1.90;;;11.20;99.90;;;;;;5137878;27;20372;-85
2022/11/25 11:52:40;;;;;;;2.47;1.90;;;11.10;99.90;;;;;;5136924;27;20205;-82
2022/11/25 11:55:25;;;;;;;3.10;2.03;;;11.30;99.90;;;;;;5131126;27;20206;-81
2022/11/25 11:58:03;;;;;;;3.80;2.10;;;10.90;99.90;;;;;;5131477;27;20221;-81
2022/11/25 12:00:34;;;;;;;2.30;1.80;;;10.70;99.90;;;;;;5135417;27;20225;-80
2022/11/25 12:03:11;;;;;;;3.40;1.80;;;10.60;99.90;;;;;;5137545;27;20204;-79
2022/11/25 12:05:39;;;;;;;3.20;2.03;;;10.40;99.90;;;;;;5132255;27;20212;-78
2022/11/25 12:08:14;;;;;;;2.93;1.97;;;10.10;99.90;;;;;;5135904;27;20292;-78
2022/11/25 12:10:50;;;;;;;3.70;1.90;;;10.00;99.90;;;;;;5132447;27;20193;-81
2022/11/25 12:13:23;;;;;;;6.47;2.00;;;9.70;99.90;;;;;;5127741;27;20208;-79
2022/11/25 12:15:56;;;;;;;3.80;1.90;;;9.40;99.90;;;;;;5134705;27;20600;-79
2022/11/25 12:18:38;;;;;;;4.53;2.40;;;9.20;99.90;;;;;;5140204;27;20279;-83
2022/11/25 12:21:17;;;;;;;4.27;2.00;;;9.00;99.90;;;;;;5130834;27;20220;-80
2022/11/25 12:23:53;;;;;;;5.17;2.23;;;9.00;99.90;;;;;;5129572;27;20217;-77
2022/11/25 12:26:30;;;;;;;4.30;2.20;;;9.00;99.90;;;;;;5139881;27;20215;-79
2022/11/25 12:29:02;;;;;;;3.70;2.03;;;9.10;99.90;;;;;;5136898;27;20199;-78
2022/11/25 12:31:39;;;;;;;4.40;2.20;;;9.40;99.90;;;;;;5137785;27;20216;-82
2022/11/25 12:34:14;;;;;;;4.90;2.10;;;9.70;99.90;;;;;;5136870;27;20301;-76
2022/11/25 12:36:47;;;;;;;5.87;2.27;;;9.80;99.90;;;;;;5135676;27;20732;-78
2022/11/25 12:39:21;;;;;;;4.10;2.40;;;10.00;99.90;;;;;;5135747;27;20221;-74
2022/11/25 12:41:55;;;;;;;3.87;2.40;;;10.30;99.90;;;;;;5116649;27;20205;-79
2022/11/25 12:44:30;;;;;;;3.40;2.47;;;10.30;99.90;;;;;;5126789;27;20567;-79
2022/11/25 12:46:58;;;;;;;3.87;2.20;;;10.20;99.90;;;;;;5136307;27;20204;-76
2022/11/25 12:49:28;;;;;;;8.20;2.73;;;10.20;99.90;;;;;;5135010;27;20201;-78
2022/11/25 12:52:10;;;;;;;5.17;2.30;;;10.20;99.90;;;;;;5118029;27;20674;-75
2022/11/25 12:55:08;;;;;;;5.50;2.27;;;10.30;99.90;;;;;;5137759;27;20266;-75
2022/11/25 12:58:21;;;;;;;5.57;2.30;;;10.20;99.90;;;;;;5130685;27;20656;-75
2022/11/25 13:01:24;;;;;;;6.80;2.53;;;10.00;99.90;;;;;;5131094;27;20240;-75
2022/11/25 13:04:24;;;;;;;3.57;2.20;;;10.10;99.90;;;;;;5063074;28;20205;-77
2022/11/25 13:07:16;;;;;;;5.53;2.43;;;10.00;99.90;;;;;;5120772;27;20197;-78
2022/11/25 13:10:14;;;;;;;6.73;2.20;;;9.80;99.90;;;;;;5126670;27;20194;-78
2022/11/25 13:12:50;;;;;;;4.53;2.30;;;9.60;99.90;;;;;;5099670;27;20558;-78
2022/11/25 13:15:26;;;;;;;4.23;2.10;;;9.40;99.90;;;;;;5128788;27;20581;-75
2022/11/25 13:17:58;;;;;;;4.73;2.33;;;9.30;99.90;;;;;;5134448;27;20284;-77
2022/11/25 13:20:44;;;;;;;5.03;2.80;;;9.30;99.90;;;;;;5135289;27;20193;-78
2022/11/25 13:23:30;;;;;;;5.10;3.40;;;9.30;99.90;;;;;;5129957;27;20240;-78